sensor_id;sensor_type;location;lat;lon;timestamp;temperature;humidity
18091;DHT22;9172;49.948;9.208;2022-10-16T00:01:44;15.50;99.90
18091;DHT22;9172;49.948;9.208;2022-10-16T00:04:13;15.60;99.90
18091;DHT22;9172;49.948;9.208;2022-10-16T00:06:42;15.60;99.90
18091;DHT22;9172;49.948;9.208;2022-10-16T00:09:12;15.60;99.90
18091;DHT22;9172;49.948;9.208;2022-10-16T00:11:41;15.60;99.90
18091;DHT22;9172;49.948;9.208;2022-10-16T00:14:12;15.60;99.90
18091;DHT22;9172;49.948;9.208;2022-10-16T00:16:42;15.60;99.90
18091;DHT22;9172;49.948;9.208;2022-10-16T00:19:11;15.60;99.90
18091;DHT22;9172;49.948;9.208;2022-10-16T00:21:40;15.60;99.90
18091;DHT22;9172;49.948;9.208;2022-10-16T00:24:10;15.60;99.90
18091;DHT22;9172;49.948;9.208;2022-10-16T00:26:40;15.60;99.90
18091;DHT22;9172;49.948;9.208;2022-10-16T00:29:10;15.60;99.90
18091;DHT22;9172;49.948;9.208;2022-10-16T00:31:39;15.60;99.90
18091;DHT22;9172;49.948;9.208;2022-10-16T00:34:07;15.60;99.90
18091;DHT22;9172;49.948;9.208;2022-10-16T00:36:36;15.60;99.90
18091;DHT22;9172;49.948;9.208;2022-10-16T00:39:04;15.60;99.90
18091;DHT22;9172;49.948;9.208;2022-10-16T00:41:33;15.50;99.90
18091;DHT22;9172;49.948;9.208;2022-10-16T00:44:04;15.50;99.90
18091;DHT22;9172;49.948;9.208;2022-10-16T00:46:35;15.50;99.90
18091;DHT22;9172;49.948;9.208;2022-10-16T00:49:08;15.40;99.90
18091;DHT22;9172;49.948;9.208;2022-10-16T00:51:38;15.40;99.90
18091;DHT22;9172;49.948;9.208;2022-10-16T00:54:10;15.40;99.90
18091;DHT22;9172;49.948;9.208;2022-10-16T00:56:39;15.40;99.90
18091;DHT22;9172;49.948;9.208;2022-10-16T00:59:14;15.40;99.90
18091;DHT22;9172;49.948;9.208;2022-10-16T01:01:39;15.40;99.90
18091;DHT22;9172;49.948;9.208;2022-10-16T01:04:08;15.40;99.90
18091;DHT22;9172;49.948;9.208;2022-10-16T01:06:39;15.40;99.90
18091;DHT22;9172;49.948;9.208;2022-10-16T01:09:14;15.30;99.90
18091;DHT22;9172;49.948;9.208;2022-10-16T01:11:50;15.30;99.90
18091;DHT22;9172;49.948;9.208;2022-10-16T01:14:24;15.30;99.90
18091;DHT22;9172;49.948;9.208;2022-10-16T01:16:57;15.30;99.90
18091;DHT22;9172;49.948;9.208;2022-10-16T01:19:39;15.30;99.90
18091;DHT22;9172;49.948;9.208;2022-10-16T01:22:09;15.30;99.90
18091;DHT22;9172;49.948;9.208;2022-10-16T01:24:40;15.30;99.90
18091;DHT22;9172;49.948;9.208;2022-10-16T01:27:15;15.30;99.90
18091;DHT22;9172;49.948;9.208;2022-10-16T01:29:50;15.30;99.90
18091;DHT22;9172;49.948;9.208;2022-10-16T01:32:23;15.30;99.90
18091;DHT22;9172;49.948;9.208;2022-10-16T01:34:54;15.30;99.90
18091;DHT22;9172;49.948;9.208;2022-10-16T01:37:29;15.30;99.90
18091;DHT22;9172;49.948;9.208;2022-10-16T01:40:00;15.30;99.90
18091;DHT22;9172;49.948;9.208;2022-10-16T01:42:33;15.30;99.90
18091;DHT22;9172;49.948;9.208;2022-10-16T01:45:03;15.20;99.90
18091;DHT22;9172;49.948;9.208;2022-10-16T01:47:36;15.20;99.90
18091;DHT22;9172;49.948;9.208;2022-10-16T01:50:08;15.20;99.90
18091;DHT22;9172;49.948;9.208;2022-10-16T01:52:39;15.20;99.90
18091;DHT22;9172;49.948;9.208;2022-10-16T01:55:11;15.20;99.90
18091;DHT22;9172;49.948;9.208;2022-10-16T01:57:44;15.20;99.90
18091;DHT22;9172;49.948;9.208;2022-10-16T02:00:16;15.20;99.90
18091;DHT22;9172;49.948;9.208;2022-10-16T02:02:47;15.20;99.90
18091;DHT22;9172;49.948;9.208;2022-10-16T02:05:20;15.10;99.90
18091;DHT22;9172;49.948;9.208;2022-10-16T02:07:49;15.10;99.90
18091;DHT22;9172;49.948;9.208;2022-10-16T02:10:18;15.10;99.90
18091;DHT22;9172;49.948;9.208;2022-10-16T02:12:50;15.10;99.90
18091;DHT22;9172;49.948;9.208;2022-10-16T02:15:20;15.10;99.90
18091;DHT22;9172;49.948;9.208;2022-10-16T02:17:49;15.10;99.90
18091;DHT22;9172;49.948;9.208;2022-10-16T02:20:17;15.10;99.90
18091;DHT22;9172;49.948;9.208;2022-10-16T02:22:50;15.10;99.90
18091;DHT22;9172;49.948;9.208;2022-10-16T02:25:22;15.00;99.90
18091;DHT22;9172;49.948;9.208;2022-10-16T02:27:53;15.10;99.90
18091;DHT22;9172;49.948;9.208;2022-10-16T02:30:25;15.10;99.90
18091;DHT22;9172;49.948;9.208;2022-10-16T02:32:54;15.10;99.90
18091;DHT22;9172;49.948;9.208;2022-10-16T02:35:25;15.10;99.90
18091;DHT22;9172;49.948;9.208;2022-10-16T02:37:55;15.10;99.90
18091;DHT22;9172;49.948;9.208;2022-10-16T02:40:25;15.10;99.90
18091;DHT22;9172;49.948;9.208;2022-10-16T02:42:55;15.10;99.90
18091;DHT22;9172;49.948;9.208;2022-10-16T02:45:25;15.10;99.90
18091;DHT22;9172;49.948;9.208;2022-10-16T02:47:54;15.10;99.90
18091;DHT22;9172;49.948;9.208;2022-10-16T02:50:24;15.10;99.90
18091;DHT22;9172;49.948;9.208;2022-10-16T02:52:53;15.10;99.90
18091;DHT22;9172;49.948;9.208;2022-10-16T02:55:23;15.10;99.90
18091;DHT22;9172;49.948;9.208;2022-10-16T02:57:54;15.10;99.90
18091;DHT22;9172;49.948;9.208;2022-10-16T03:00:23;15.10;99.90
18091;DHT22;9172;49.948;9.208;2022-10-16T03:02:51;15.10;99.90
18091;DHT22;9172;49.948;9.208;2022-10-16T03:05:20;15.10;99.90
18091;DHT22;9172;49.948;9.208;2022-10-16T03:07:49;15.10;99.90
18091;DHT22;9172;49.948;9.208;2022-10-16T03:10:20;15.10;99.90
18091;DHT22;9172;49.948;9.208;2022-10-16T03:12:48;15.10;99.90
18091;DHT22;9172;49.948;9.208;2022-10-16T03:15:17;15.10;99.90
18091;DHT22;9172;49.948;9.208;2022-10-16T03:17:46;15.10;99.90
18091;DHT22;9172;49.948;9.208;2022-10-16T03:20:16;15.10;99.90
18091;DHT22;9172;49.948;9.208;2022-10-16T03:22:44;15.10;99.90
18091;DHT22;9172;49.948;9.208;2022-10-16T03:25:14;15.10;99.90
18091;DHT22;9172;49.948;9.208;2022-10-16T03:27:42;15.10;99.90
18091;DHT22;9172;49.948;9.208;2022-10-16T03:30:12;15.10;99.90
18091;DHT22;9172;49.948;9.208;2022-10-16T03:32:41;15.10;99.90
18091;DHT22;9172;49.948;9.208;2022-10-16T03:35:10;15.10;99.90
18091;DHT22;9172;49.948;9.208;2022-10-16T03:37:39;15.10;99.90
18091;DHT22;9172;49.948;9.208;2022-10-16T03:40:10;15.10;99.90
18091;DHT22;9172;49.948;9.208;2022-10-16T03:42:39;15.10;99.90
18091;DHT22;9172;49.948;9.208;2022-10-16T03:45:09;15.10;99.90
18091;DHT22;9172;49.948;9.208;2022-10-16T03:47:38;15.10;99.90
18091;DHT22;9172;49.948;9.208;2022-10-16T03:50:09;15.10;99.90
18091;DHT22;9172;49.948;9.208;2022-10-16T03:52:37;15.00;99.90
18091;DHT22;9172;49.948;9.208;2022-10-16T03:55:08;15.10;99.90
18091;DHT22;9172;49.948;9.208;2022-10-16T03:57:36;15.10;99.90
18091;DHT22;9172;49.948;9.208;2022-10-16T04:00:07;15.00;99.90
18091;DHT22;9172;49.948;9.208;2022-10-16T04:02:35;15.10;99.90
18091;DHT22;9172;49.948;9.208;2022-10-16T04:05:05;15.10;99.90
18091;DHT22;9172;49.948;9.208;2022-10-16T04:07:34;15.10;99.90
18091;DHT22;9172;49.948;9.208;2022-10-16T04:10:04;15.10;99.90
18091;DHT22;9172;49.948;9.208;2022-10-16T04:12:34;15.10;99.90
18091;DHT22;9172;49.948;9.208;2022-10-16T04:15:03;15.10;99.90
18091;DHT22;9172;49.948;9.208;2022-10-16T04:17:33;15.10;99.90
18091;DHT22;9172;49.948;9.208;2022-10-16T04:20:01;15.10;99.90
18091;DHT22;9172;49.948;9.208;2022-10-16T04:22:30;15.10;99.90
18091;DHT22;9172;49.948;9.208;2022-10-16T04:24:59;15.10;99.90
18091;DHT22;9172;49.948;9.208;2022-10-16T04:27:28;15.20;99.90
18091;DHT22;9172;49.948;9.208;2022-10-16T04:29:58;15.20;99.90
18091;DHT22;9172;49.948;9.208;2022-10-16T04:32:28;15.20;99.90
18091;DHT22;9172;49.948;9.208;2022-10-16T04:34:58;15.20;99.90
18091;DHT22;9172;49.948;9.208;2022-10-16T04:37:27;15.20;99.90
18091;DHT22;9172;49.948;9.208;2022-10-16T04:39:55;15.20;99.90
18091;DHT22;9172;49.948;9.208;2022-10-16T04:42:24;15.20;99.90
18091;DHT22;9172;49.948;9.208;2022-10-16T04:44:52;15.20;99.90
18091;DHT22;9172;49.948;9.208;2022-10-16T04:47:21;15.30;99.90
18091;DHT22;9172;49.948;9.208;2022-10-16T04:49:49;15.30;99.90
18091;DHT22;9172;49.948;9.208;2022-10-16T04:52:18;15.30;99.90
18091;DHT22;9172;49.948;9.208;2022-10-16T04:54:48;15.30;99.90
18091;DHT22;9172;49.948;9.208;2022-10-16T04:57:17;15.30;99.90
18091;DHT22;9172;49.948;9.208;2022-10-16T04:59:46;15.40;99.90
18091;DHT22;9172;49.948;9.208;2022-10-16T05:02:14;15.40;99.90
18091;DHT22;9172;49.948;9.208;2022-10-16T05:04:45;15.40;99.90
18091;DHT22;9172;49.948;9.208;2022-10-16T05:07:14;15.40;99.90
18091;DHT22;9172;49.948;9.208;2022-10-16T05:09:43;15.40;99.90
18091;DHT22;9172;49.948;9.208;2022-10-16T05:12:11;15.40;99.90
18091;DHT22;9172;49.948;9.208;2022-10-16T05:14:41;15.40;99.90
18091;DHT22;9172;49.948;9.208;2022-10-16T05:17:10;15.40;99.90
18091;DHT22;9172;49.948;9.208;2022-10-16T05:19:40;15.40;99.90
18091;DHT22;9172;49.948;9.208;2022-10-16T05:24:47;15.40;99.90
18091;DHT22;9172;49.948;9.208;2022-10-16T05:27:17;15.40;99.90
18091;DHT22;9172;49.948;9.208;2022-10-16T05:32:23;15.30;99.90
18091;DHT22;9172;49.948;9.208;2022-10-16T05:37:29;15.40;99.90
18091;DHT22;9172;49.948;9.208;2022-10-16T05:39:59;15.40;99.90
18091;DHT22;9172;49.948;9.208;2022-10-16T05:42:27;15.40;99.90
18091;DHT22;9172;49.948;9.208;2022-10-16T05:44:56;15.40;99.90
18091;DHT22;9172;49.948;9.208;2022-10-16T05:50:01;15.40;99.90
18091;DHT22;9172;49.948;9.208;2022-10-16T05:52:31;15.30;99.90
18091;DHT22;9172;49.948;9.208;2022-10-16T05:55:00;15.30;99.90
18091;DHT22;9172;49.948;9.208;2022-10-16T05:57:28;15.30;99.90
18091;DHT22;9172;49.948;9.208;2022-10-16T05:59:58;15.30;99.90
18091;DHT22;9172;49.948;9.208;2022-10-16T06:02:28;15.40;99.90
18091;DHT22;9172;49.948;9.208;2022-10-16T06:04:56;15.30;99.90
18091;DHT22;9172;49.948;9.208;2022-10-16T06:07:26;15.40;99.90
18091;DHT22;9172;49.948;9.208;2022-10-16T06:09:55;15.40;99.90
18091;DHT22;9172;49.948;9.208;2022-10-16T06:12:24;15.40;99.90
18091;DHT22;9172;49.948;9.208;2022-10-16T06:14:55;15.40;99.90
18091;DHT22;9172;49.948;9.208;2022-10-16T06:17:24;15.40;99.90
18091;DHT22;9172;49.948;9.208;2022-10-16T06:19:53;15.40;99.90
18091;DHT22;9172;49.948;9.208;2022-10-16T06:22:22;15.40;99.90
18091;DHT22;9172;49.948;9.208;2022-10-16T06:24:51;15.40;99.90
18091;DHT22;9172;49.948;9.208;2022-10-16T06:27:19;15.40;99.90
18091;DHT22;9172;49.948;9.208;2022-10-16T06:29:49;15.40;99.90
18091;DHT22;9172;49.948;9.208;2022-10-16T06:32:18;15.50;99.90
18091;DHT22;9172;49.948;9.208;2022-10-16T06:34:46;15.50;99.90
18091;DHT22;9172;49.948;9.208;2022-10-16T06:37:15;15.50;99.90
18091;DHT22;9172;49.948;9.208;2022-10-16T06:39:44;15.50;99.90
18091;DHT22;9172;49.948;9.208;2022-10-16T06:42:13;15.50;99.90
18091;DHT22;9172;49.948;9.208;2022-10-16T06:44:42;15.60;99.90
18091;DHT22;9172;49.948;9.208;2022-10-16T06:47:12;15.60;99.90
18091;DHT22;9172;49.948;9.208;2022-10-16T06:49:40;15.60;99.90
18091;DHT22;9172;49.948;9.208;2022-10-16T06:52:09;15.60;99.90
18091;DHT22;9172;49.948;9.208;2022-10-16T06:54:38;15.60;99.90
18091;DHT22;9172;49.948;9.208;2022-10-16T06:57:07;15.60;99.90
18091;DHT22;9172;49.948;9.208;2022-10-16T06:59:35;15.60;99.90
18091;DHT22;9172;49.948;9.208;2022-10-16T07:02:04;15.60;99.90
18091;DHT22;9172;49.948;9.208;2022-10-16T07:04:35;15.70;99.90
18091;DHT22;9172;49.948;9.208;2022-10-16T07:07:03;15.60;99.90
18091;DHT22;9172;49.948;9.208;2022-10-16T07:09:32;15.70;99.90
18091;DHT22;9172;49.948;9.208;2022-10-16T07:12:01;15.70;99.90
18091;DHT22;9172;49.948;9.208;2022-10-16T07:14:30;15.70;99.90
18091;DHT22;9172;49.948;9.208;2022-10-16T07:16:59;15.70;99.90
18091;DHT22;9172;49.948;9.208;2022-10-16T07:19:30;15.70;99.90
18091;DHT22;9172;49.948;9.208;2022-10-16T07:21:58;15.70;99.90
18091;DHT22;9172;49.948;9.208;2022-10-16T07:24:27;15.70;99.90
18091;DHT22;9172;49.948;9.208;2022-10-16T07:26:55;15.70;99.90
18091;DHT22;9172;49.948;9.208;2022-10-16T07:29:25;15.80;99.90
18091;DHT22;9172;49.948;9.208;2022-10-16T07:31:53;15.80;99.90
18091;DHT22;9172;49.948;9.208;2022-10-16T07:34:22;15.80;99.90
18091;DHT22;9172;49.948;9.208;2022-10-16T07:36:51;15.80;99.90
18091;DHT22;9172;49.948;9.208;2022-10-16T07:39:20;15.80;99.90
18091;DHT22;9172;49.948;9.208;2022-10-16T07:41:48;15.90;99.90
18091;DHT22;9172;49.948;9.208;2022-10-16T07:44:17;15.90;99.90
18091;DHT22;9172;49.948;9.208;2022-10-16T07:46:45;15.90;99.90
18091;DHT22;9172;49.948;9.208;2022-10-16T07:49:14;15.90;99.90
18091;DHT22;9172;49.948;9.208;2022-10-16T07:51:43;15.90;99.90
18091;DHT22;9172;49.948;9.208;2022-10-16T07:54:11;16.00;99.90
18091;DHT22;9172;49.948;9.208;2022-10-16T07:56:40;16.00;99.90
18091;DHT22;9172;49.948;9.208;2022-10-16T07:59:09;16.00;99.90
18091;DHT22;9172;49.948;9.208;2022-10-16T08:01:37;16.00;99.90
18091;DHT22;9172;49.948;9.208;2022-10-16T08:04:06;16.00;99.90
18091;DHT22;9172;49.948;9.208;2022-10-16T08:06:37;16.10;99.90
18091;DHT22;9172;49.948;9.208;2022-10-16T08:09:07;16.00;99.90
18091;DHT22;9172;49.948;9.208;2022-10-16T08:11:35;16.10;99.90
18091;DHT22;9172;49.948;9.208;2022-10-16T08:14:06;16.10;99.90
18091;DHT22;9172;49.948;9.208;2022-10-16T08:16:35;16.10;99.90
18091;DHT22;9172;49.948;9.208;2022-10-16T08:19:03;16.10;99.90
18091;DHT22;9172;49.948;9.208;2022-10-16T08:21:32;16.10;99.90
18091;DHT22;9172;49.948;9.208;2022-10-16T08:24:00;16.10;99.90
18091;DHT22;9172;49.948;9.208;2022-10-16T08:26:30;16.10;99.90
18091;DHT22;9172;49.948;9.208;2022-10-16T08:28:59;16.10;99.90
18091;DHT22;9172;49.948;9.208;2022-10-16T08:31:28;16.20;99.90
18091;DHT22;9172;49.948;9.208;2022-10-16T08:33:57;16.20;99.90
18091;DHT22;9172;49.948;9.208;2022-10-16T08:36:26;16.20;99.90
18091;DHT22;9172;49.948;9.208;2022-10-16T08:38:55;16.30;99.90
18091;DHT22;9172;49.948;9.208;2022-10-16T08:41:57;16.30;99.90
18091;DHT22;9172;49.948;9.208;2022-10-16T08:47:44;16.30;99.90
18091;DHT22;9172;49.948;9.208;2022-10-16T08:50:18;16.40;99.90
18091;DHT22;9172;49.948;9.208;2022-10-16T08:52:47;16.40;99.90
18091;DHT22;9172;49.948;9.208;2022-10-16T08:55:31;16.40;99.90
18091;DHT22;9172;49.948;9.208;2022-10-16T08:58:01;16.40;99.90
18091;DHT22;9172;49.948;9.208;2022-10-16T09:00:30;16.40;99.90
18091;DHT22;9172;49.948;9.208;2022-10-16T09:03:04;16.40;99.90
18091;DHT22;9172;49.948;9.208;2022-10-16T09:05:49;16.40;99.90
18091;DHT22;9172;49.948;9.208;2022-10-16T09:08:23;16.40;99.90
18091;DHT22;9172;49.948;9.208;2022-10-16T09:10:55;16.40;99.90
18091;DHT22;9172;49.948;9.208;2022-10-16T09:13:40;16.40;99.90
18091;DHT22;9172;49.948;9.208;2022-10-16T09:16:07;16.40;99.90
18091;DHT22;9172;49.948;9.208;2022-10-16T09:18:37;16.40;99.90
18091;DHT22;9172;49.948;9.208;2022-10-16T09:21:09;16.50;99.90
18091;DHT22;9172;49.948;9.208;2022-10-16T09:23:40;16.40;99.90
18091;DHT22;9172;49.948;9.208;2022-10-16T09:26:13;16.40;99.90
18091;DHT22;9172;49.948;9.208;2022-10-16T09:28:42;16.40;99.90
18091;DHT22;9172;49.948;9.208;2022-10-16T09:31:16;16.40;99.90
18091;DHT22;9172;49.948;9.208;2022-10-16T09:33:50;16.40;99.90
18091;DHT22;9172;49.948;9.208;2022-10-16T09:36:21;16.40;99.90
18091;DHT22;9172;49.948;9.208;2022-10-16T09:39:00;16.30;99.90
18091;DHT22;9172;49.948;9.208;2022-10-16T09:41:23;16.30;99.90
18091;DHT22;9172;49.948;9.208;2022-10-16T09:43:55;16.30;99.90
18091;DHT22;9172;49.948;9.208;2022-10-16T09:46:29;16.30;99.90
18091;DHT22;9172;49.948;9.208;2022-10-16T09:49:00;16.30;99.90
18091;DHT22;9172;49.948;9.208;2022-10-16T09:51:31;16.30;99.90
18091;DHT22;9172;49.948;9.208;2022-10-16T09:54:01;16.30;99.90
18091;DHT22;9172;49.948;9.208;2022-10-16T09:56:32;16.30;99.90
18091;DHT22;9172;49.948;9.208;2022-10-16T09:59:08;16.30;99.90
18091;DHT22;9172;49.948;9.208;2022-10-16T10:01:40;16.30;99.90
18091;DHT22;9172;49.948;9.208;2022-10-16T10:04:11;16.30;99.90
18091;DHT22;9172;49.948;9.208;2022-10-16T10:06:44;16.40;99.90
18091;DHT22;9172;49.948;9.208;2022-10-16T10:09:20;16.40;99.90
18091;DHT22;9172;49.948;9.208;2022-10-16T10:11:51;16.40;99.90
18091;DHT22;9172;49.948;9.208;2022-10-16T10:14:30;16.40;99.90
18091;DHT22;9172;49.948;9.208;2022-10-16T10:17:13;16.50;99.90
18091;DHT22;9172;49.948;9.208;2022-10-16T10:19:47;16.50;99.90
18091;DHT22;9172;49.948;9.208;2022-10-16T10:22:29;16.50;99.90
18091;DHT22;9172;49.948;9.208;2022-10-16T10:25:24;16.60;99.90
18091;DHT22;9172;49.948;9.208;2022-10-16T10:28:02;16.60;99.90
18091;DHT22;9172;49.948;9.208;2022-10-16T10:30:34;16.70;99.90
18091;DHT22;9172;49.948;9.208;2022-10-16T10:33:11;16.70;99.90
18091;DHT22;9172;49.948;9.208;2022-10-16T10:35:44;16.90;99.90
18091;DHT22;9172;49.948;9.208;2022-10-16T10:38:25;16.90;99.90
18091;DHT22;9172;49.948;9.208;2022-10-16T10:41:00;17.00;99.90
18091;DHT22;9172;49.948;9.208;2022-10-16T10:43:40;17.10;99.90
18091;DHT22;9172;49.948;9.208;2022-10-16T10:46:12;17.30;99.90
18091;DHT22;9172;49.948;9.208;2022-10-16T10:48:59;17.40;99.90
18091;DHT22;9172;49.948;9.208;2022-10-16T10:51:32;17.50;99.90
18091;DHT22;9172;49.948;9.208;2022-10-16T10:54:06;17.60;99.90
18091;DHT22;9172;49.948;9.208;2022-10-16T10:56:49;17.60;99.90
18091;DHT22;9172;49.948;9.208;2022-10-16T10:59:45;17.70;99.90
18091;DHT22;9172;49.948;9.208;2022-10-16T11:02:18;17.70;99.90
18091;DHT22;9172;49.948;9.208;2022-10-16T11:07:58;17.90;99.90
18091;DHT22;9172;49.948;9.208;2022-10-16T11:10:33;18.00;99.90
18091;DHT22;9172;49.948;9.208;2022-10-16T11:13:06;18.10;99.90
18091;DHT22;9172;49.948;9.208;2022-10-16T11:15:36;18.20;99.90
18091;DHT22;9172;49.948;9.208;2022-10-16T11:18:08;18.30;99.90
18091;DHT22;9172;49.948;9.208;2022-10-16T11:20:41;18.40;99.90
18091;DHT22;9172;49.948;9.208;2022-10-16T11:23:14;18.40;99.90
18091;DHT22;9172;49.948;9.208;2022-10-16T11:25:47;18.50;99.90
18091;DHT22;9172;49.948;9.208;2022-10-16T11:30:55;18.50;99.90
18091;DHT22;9172;49.948;9.208;2022-10-16T11:36:11;18.50;99.90
18091;DHT22;9172;49.948;9.208;2022-10-16T11:38:44;18.50;99.90
18091;DHT22;9172;49.948;9.208;2022-10-16T11:41:20;18.60;99.90
18091;DHT22;9172;49.948;9.208;2022-10-16T11:43:54;18.70;99.90
18091;DHT22;9172;49.948;9.208;2022-10-16T11:46:24;18.70;99.90
18091;DHT22;9172;49.948;9.208;2022-10-16T11:48:57;18.80;99.90
18091;DHT22;9172;49.948;9.208;2022-10-16T11:51:31;18.70;99.90
18091;DHT22;9172;49.948;9.208;2022-10-16T11:54:04;18.60;99.90
18091;DHT22;9172;49.948;9.208;2022-10-16T11:56:36;18.60;99.90
18091;DHT22;9172;49.948;9.208;2022-10-16T12:01:46;18.60;99.90
18091;DHT22;9172;49.948;9.208;2022-10-16T12:04:21;18.60;99.90
18091;DHT22;9172;49.948;9.208;2022-10-16T12:07:09;18.60;99.90
18091;DHT22;9172;49.948;9.208;2022-10-16T12:09:41;18.60;99.90
18091;DHT22;9172;49.948;9.208;2022-10-16T12:12:25;18.60;99.90
18091;DHT22;9172;49.948;9.208;2022-10-16T12:15:02;18.60;99.90
18091;DHT22;9172;49.948;9.208;2022-10-16T12:17:37;18.60;99.90
18091;DHT22;9172;49.948;9.208;2022-10-16T12:20:23;18.60;99.90
18091;DHT22;9172;49.948;9.208;2022-10-16T12:22:55;18.70;99.90
18091;DHT22;9172;49.948;9.208;2022-10-16T12:25:27;18.80;99.90
18091;DHT22;9172;49.948;9.208;2022-10-16T12:27:58;18.90;99.90
18091;DHT22;9172;49.948;9.208;2022-10-16T12:30:29;19.00;99.90
18091;DHT22;9172;49.948;9.208;2022-10-16T12:33:00;19.00;99.90
18091;DHT22;9172;49.948;9.208;2022-10-16T12:35:32;19.10;99.90
18091;DHT22;9172;49.948;9.208;2022-10-16T12:38:17;19.10;99.90
18091;DHT22;9172;49.948;9.208;2022-10-16T12:40:54;19.10;99.90
18091;DHT22;9172;49.948;9.208;2022-10-16T12:43:35;19.10;99.90
18091;DHT22;9172;49.948;9.208;2022-10-16T12:46:20;19.10;99.90
18091;DHT22;9172;49.948;9.208;2022-10-16T12:48:50;19.10;99.90
18091;DHT22;9172;49.948;9.208;2022-10-16T12:51:25;19.10;99.90
18091;DHT22;9172;49.948;9.208;2022-10-16T12:54:01;19.10;99.90
18091;DHT22;9172;49.948;9.208;2022-10-16T12:56:38;19.10;99.90
18091;DHT22;9172;49.948;9.208;2022-10-16T12:59:13;19.10;99.90
18091;DHT22;9172;49.948;9.208;2022-10-16T13:01:49;19.10;99.90
18091;DHT22;9172;49.948;9.208;2022-10-16T13:04:29;19.00;99.90
18091;DHT22;9172;49.948;9.208;2022-10-16T13:09:45;19.10;99.90
18091;DHT22;9172;49.948;9.208;2022-10-16T13:12:25;19.10;99.90
18091;DHT22;9172;49.948;9.208;2022-10-16T13:15:04;19.10;99.90
18091;DHT22;9172;49.948;9.208;2022-10-16T13:17:36;19.10;99.90
18091;DHT22;9172;49.948;9.208;2022-10-16T13:20:12;19.10;99.90
18091;DHT22;9172;49.948;9.208;2022-10-16T13:22:43;19.10;99.90
18091;DHT22;9172;49.948;9.208;2022-10-16T13:25:20;19.10;99.90
18091;DHT22;9172;49.948;9.208;2022-10-16T13:27:52;19.10;99.90
18091;DHT22;9172;49.948;9.208;2022-10-16T13:30:23;19.10;99.90
18091;DHT22;9172;49.948;9.208;2022-10-16T13:35:34;19.10;99.90
18091;DHT22;9172;49.948;9.208;2022-10-16T13:38:15;19.10;99.90
18091;DHT22;9172;49.948;9.208;2022-10-16T13:40:52;19.10;99.90
18091;DHT22;9172;49.948;9.208;2022-10-16T13:43:23;19.10;99.90
18091;DHT22;9172;49.948;9.208;2022-10-16T13:45:58;19.00;99.90
18091;DHT22;9172;49.948;9.208;2022-10-16T13:48:29;19.00;99.90
18091;DHT22;9172;49.948;9.208;2022-10-16T13:51:06;18.70;99.90
18091;DHT22;9172;49.948;9.208;2022-10-16T13:53:37;19.00;99.90
18091;DHT22;9172;49.948;9.208;2022-10-16T13:56:07;19.00;99.90
18091;DHT22;9172;49.948;9.208;2022-10-16T13:58:37;19.00;99.90
18091;DHT22;9172;49.948;9.208;2022-10-16T14:01:15;19.00;99.90
18091;DHT22;9172;49.948;9.208;2022-10-16T14:03:43;19.00;99.90
18091;DHT22;9172;49.948;9.208;2022-10-16T14:06:15;19.00;99.90
18091;DHT22;9172;49.948;9.208;2022-10-16T14:08:48;19.00;99.90
18091;DHT22;9172;49.948;9.208;2022-10-16T14:11:22;19.00;99.90
18091;DHT22;9172;49.948;9.208;2022-10-16T14:13:51;19.00;99.90
18091;DHT22;9172;49.948;9.208;2022-10-16T14:16:23;18.90;99.90
18091;DHT22;9172;49.948;9.208;2022-10-16T14:18:57;18.90;99.90
18091;DHT22;9172;49.948;9.208;2022-10-16T14:21:30;18.90;99.90
18091;DHT22;9172;49.948;9.208;2022-10-16T14:24:00;18.90;99.90
18091;DHT22;9172;49.948;9.208;2022-10-16T14:26:40;18.90;99.90
18091;DHT22;9172;49.948;9.208;2022-10-16T14:29:10;18.90;99.90
18091;DHT22;9172;49.948;9.208;2022-10-16T14:31:36;18.90;99.90
18091;DHT22;9172;49.948;9.208;2022-10-16T14:34:24;18.80;99.90
18091;DHT22;9172;49.948;9.208;2022-10-16T14:36:55;18.80;99.90
18091;DHT22;9172;49.948;9.208;2022-10-16T14:39:27;18.80;99.90
18091;DHT22;9172;49.948;9.208;2022-10-16T14:41:57;18.70;99.90
18091;DHT22;9172;49.948;9.208;2022-10-16T14:44:32;18.60;99.90
18091;DHT22;9172;49.948;9.208;2022-10-16T14:47:09;18.60;99.90
18091;DHT22;9172;49.948;9.208;2022-10-16T14:49:39;18.60;99.90
18091;DHT22;9172;49.948;9.208;2022-10-16T14:52:11;18.50;99.90
18091;DHT22;9172;49.948;9.208;2022-10-16T14:54:43;18.50;99.90
18091;DHT22;9172;49.948;9.208;2022-10-16T14:57:18;18.60;99.90
18091;DHT22;9172;49.948;9.208;2022-10-16T14:59:47;18.60;99.90
18091;DHT22;9172;49.948;9.208;2022-10-16T15:02:23;18.50;99.90
18091;DHT22;9172;49.948;9.208;2022-10-16T15:04:51;18.50;99.90
18091;DHT22;9172;49.948;9.208;2022-10-16T15:07:19;18.50;99.90
18091;DHT22;9172;49.948;9.208;2022-10-16T15:09:48;18.50;99.90
18091;DHT22;9172;49.948;9.208;2022-10-16T15:12:17;18.50;99.90
18091;DHT22;9172;49.948;9.208;2022-10-16T15:14:46;18.50;99.90
18091;DHT22;9172;49.948;9.208;2022-10-16T15:17:15;18.50;99.90
18091;DHT22;9172;49.948;9.208;2022-10-16T15:19:43;18.40;99.90
18091;DHT22;9172;49.948;9.208;2022-10-16T15:22:12;18.40;99.90
18091;DHT22;9172;49.948;9.208;2022-10-16T15:24:42;18.40;99.90
18091;DHT22;9172;49.948;9.208;2022-10-16T15:27:11;18.40;99.90
18091;DHT22;9172;49.948;9.208;2022-10-16T15:29:40;18.40;99.90
18091;DHT22;9172;49.948;9.208;2022-10-16T15:32:10;18.40;99.90
18091;DHT22;9172;49.948;9.208;2022-10-16T15:34:39;18.40;99.90
18091;DHT22;9172;49.948;9.208;2022-10-16T15:37:08;18.30;99.90
18091;DHT22;9172;49.948;9.208;2022-10-16T15:39:39;18.30;99.90
18091;DHT22;9172;49.948;9.208;2022-10-16T15:42:09;18.30;99.90
18091;DHT22;9172;49.948;9.208;2022-10-16T15:44:37;18.30;99.90
18091;DHT22;9172;49.948;9.208;2022-10-16T15:47:07;18.30;99.90
18091;DHT22;9172;49.948;9.208;2022-10-16T15:49:35;18.30;99.90
18091;DHT22;9172;49.948;9.208;2022-10-16T15:52:04;18.20;99.90
18091;DHT22;9172;49.948;9.208;2022-10-16T15:54:35;18.20;99.90
18091;DHT22;9172;49.948;9.208;2022-10-16T15:57:03;18.20;99.90
18091;DHT22;9172;49.948;9.208;2022-10-16T15:59:33;18.20;99.90
18091;DHT22;9172;49.948;9.208;2022-10-16T16:02:02;18.10;99.90
18091;DHT22;9172;49.948;9.208;2022-10-16T16:04:32;18.10;99.90
18091;DHT22;9172;49.948;9.208;2022-10-16T16:07:00;18.10;99.90
18091;DHT22;9172;49.948;9.208;2022-10-16T16:09:30;18.10;99.90
18091;DHT22;9172;49.948;9.208;2022-10-16T16:11:58;18.10;99.90
18091;DHT22;9172;49.948;9.208;2022-10-16T16:14:28;18.10;99.90
18091;DHT22;9172;49.948;9.208;2022-10-16T16:16:57;18.00;99.90
18091;DHT22;9172;49.948;9.208;2022-10-16T16:19:27;18.00;99.90
18091;DHT22;9172;49.948;9.208;2022-10-16T16:21:55;18.00;99.90
18091;DHT22;9172;49.948;9.208;2022-10-16T16:24:24;18.00;99.90
18091;DHT22;9172;49.948;9.208;2022-10-16T16:26:54;18.00;99.90
18091;DHT22;9172;49.948;9.208;2022-10-16T16:29:24;18.00;99.90
18091;DHT22;9172;49.948;9.208;2022-10-16T16:31:53;18.00;99.90
18091;DHT22;9172;49.948;9.208;2022-10-16T16:34:24;17.90;99.90
18091;DHT22;9172;49.948;9.208;2022-10-16T16:36:54;17.80;99.90
18091;DHT22;9172;49.948;9.208;2022-10-16T16:39:24;17.70;99.90
18091;DHT22;9172;49.948;9.208;2022-10-16T16:41:54;17.70;99.90